Time;durP1;ratioP1;P1;durP2;ratioP2;P2;SDS_P1;SDS_P2;PMS_P1;PMS_P2;Temp;Humidity;BMP_temperature;BMP_pressure;BME280_temperature;BME280_humidity;BME280_pressure;Samples;Min_cycle;Max_cycle;Signal;HPM_P1;HPM_P2
2023/01/20 00:00:37;;;;;;;0.80;0.80;;;0.70;99.90;;;;;;5018234;27;20490;-86
2023/01/20 00:03:03;;;;;;;0.80;0.80;;;0.70;99.90;;;;;;5025223;27;20042;-85
2023/01/20 00:05:29;;;;;;;0.80;0.80;;;0.90;99.90;;;;;;5000731;27;20039;-86
2023/01/20 00:07:55;;;;;;;0.80;0.80;;;0.80;99.90;;;;;;5019302;27;20413;-85
2023/01/20 00:10:20;;;;;;;0.80;0.80;;;0.90;99.90;;;;;;5014628;27;20072;-86
2023/01/20 00:12:46;;;;;;;0.90;0.90;;;0.80;99.90;;;;;;5011225;27;20047;-84
2023/01/20 00:15:12;;;;;;;0.80;0.80;;;1.10;99.90;;;;;;5037174;27;20050;-85
2023/01/20 00:17:38;;;;;;;0.90;0.90;;;1.10;99.90;;;;;;5019228;27;20038;-86
2023/01/20 00:20:04;;;;;;;0.80;0.80;;;0.80;99.90;;;;;;5020618;27;20065;-85
2023/01/20 00:22:30;;;;;;;0.80;0.80;;;1.10;99.90;;;;;;5037276;27;20104;-85
2023/01/20 00:24:58;;;;;;;0.88;0.88;;;0.90;99.90;;;;;;5007985;27;20508;-85
2023/01/20 00:27:24;;;;;;;0.80;0.80;;;1.20;99.90;;;;;;5035777;27;20982;-86
2023/01/20 00:29:50;;;;;;;0.80;0.80;;;1.20;99.90;;;;;;5014292;27;20070;-86
2023/01/20 00:32:16;;;;;;;0.80;0.80;;;1.00;99.90;;;;;;5020058;27;20108;-86
2023/01/20 00:34:41;;;;;;;0.85;0.85;;;1.10;99.90;;;;;;5036548;27;20051;-85
2023/01/20 00:37:07;;;;;;;0.80;0.80;;;1.30;99.90;;;;;;5035178;27;20406;-86
2023/01/20 00:39:33;;;;;;;0.80;0.80;;;1.20;99.90;;;;;;5037833;27;20771;-86
2023/01/20 00:41:59;;;;;;;0.80;0.80;;;1.30;99.90;;;;;;5044432;27;20441;-85
2023/01/20 00:44:24;;;;;;;0.80;0.80;;;1.20;99.90;;;;;;5038525;27;20377;-86
2023/01/20 00:46:50;;;;;;;0.80;0.80;;;1.20;99.90;;;;;;5034733;27;20547;-85
2023/01/20 00:49:16;;;;;;;0.80;0.80;;;1.50;99.90;;;;;;5020304;27;20047;-86
2023/01/20 00:51:41;;;;;;;0.80;0.80;;;1.60;99.90;;;;;;5018103;27;20057;-86
2023/01/20 00:54:07;;;;;;;0.75;0.75;;;1.40;99.90;;;;;;5018686;27;20606;-85
2023/01/20 00:56:33;;;;;;;0.80;0.80;;;1.60;99.90;;;;;;5014646;27;20300;-85
2023/01/20 00:58:58;;;;;;;0.80;0.80;;;1.60;99.90;;;;;;5015953;27;20158;-85
2023/01/20 01:01:24;;;;;;;0.70;0.70;;;1.60;99.90;;;;;;5003944;27;20050;-84
2023/01/20 01:03:53;;;;;;;0.80;0.80;;;1.40;99.90;;;;;;5036183;27;20039;-86
2023/01/20 01:06:19;;;;;;;0.80;0.80;;;1.70;99.90;;;;;;5011678;27;20050;-86
2023/01/20 01:08:45;;;;;;;0.80;0.80;;;1.70;99.90;;;;;;5042486;27;20046;-85
2023/01/20 01:11:12;;;;;;;0.80;0.80;;;1.60;99.90;;;;;;5030678;27;20057;-84
2023/01/20 01:13:38;;;;;;;0.85;0.85;;;1.50;99.90;;;;;;5033025;27;20215;-86
2023/01/20 01:16:08;;;;;;;0.80;0.80;;;1.60;99.90;;;;;;5033729;27;20035;-85
2023/01/20 01:18:34;;;;;;;0.80;0.80;;;1.60;99.90;;;;;;5039876;27;20047;-86
2023/01/20 01:21:06;;;;;;;0.80;0.80;;;1.50;99.90;;;;;;5008827;27;20445;-85
2023/01/20 01:23:32;;;;;;;0.80;0.80;;;1.60;99.90;;;;;;5036858;27;20057;-85
2023/01/20 01:25:57;;;;;;;0.77;0.77;;;1.70;99.90;;;;;;5022512;27;20043;-85
2023/01/20 01:28:23;;;;;;;0.80;0.80;;;1.70;99.90;;;;;;5024805;27;20438;-85
2023/01/20 01:30:49;;;;;;;0.80;0.80;;;1.80;99.90;;;;;;5024576;27;20791;-86
2023/01/20 01:33:15;;;;;;;0.80;0.80;;;1.80;99.90;;;;;;5041439;27;20455;-85
2023/01/20 01:35:40;;;;;;;0.80;0.80;;;1.80;99.90;;;;;;5024905;27;20075;-85
2023/01/20 01:38:06;;;;;;;0.80;0.80;;;1.60;99.90;;;;;;5041994;27;20070;-85
2023/01/20 01:40:33;;;;;;;0.80;0.80;;;1.50;99.90;;;;;;5041670;27;20415;-86
2023/01/20 01:42:59;;;;;;;0.80;0.80;;;1.60;99.90;;;;;;5010682;27;20050;-85
2023/01/20 01:45:27;;;;;;;0.80;0.80;;;1.70;99.90;;;;;;5038631;27;20038;-86
2023/01/20 01:48:07;;;;;;;0.70;0.70;;;1.60;99.90;;;;;;5041581;27;20111;-86
2023/01/20 01:50:40;;;;;;;0.80;0.80;;;1.80;99.90;;;;;;5039203;27;20809;-85
2023/01/20 01:53:07;;;;;;;0.80;0.80;;;1.60;99.90;;;;;;5035089;27;20146;-85
2023/01/20 01:55:38;;;;;;;0.80;0.80;;;1.60;99.90;;;;;;5042503;27;20054;-85
2023/01/20 01:58:05;;;;;;;0.80;0.80;;;1.60;99.90;;;;;;5029121;27;20047;-86
2023/01/20 02:00:31;;;;;;;0.80;0.80;;;1.80;99.90;;;;;;5028575;27;20526;-85
2023/01/20 02:02:57;;;;;;;0.73;0.73;;;1.70;99.90;;;;;;5023085;27;20045;-85
2023/01/20 02:05:25;;;;;;;0.80;0.80;;;1.50;99.90;;;;;;5042694;27;20523;-86
2023/01/20 02:07:52;;;;;;;0.80;0.80;;;1.70;99.90;;;;;;5022330;27;20047;-86
2023/01/20 02:10:18;;;;;;;0.80;0.80;;;1.60;99.90;;;;;;5028530;27;20909;-85
2023/01/20 02:12:48;;;;;;;0.80;0.80;;;1.70;99.90;;;;;;5045848;27;20047;-85
2023/01/20 02:15:15;;;;;;;0.80;0.80;;;1.60;99.90;;;;;;5055144;27;20606;-85
2023/01/20 02:17:55;;;;;;;0.80;0.80;;;1.60;99.90;;;;;;5045397;27;20979;-85
2023/01/20 02:20:47;;;;;;;0.80;0.80;;;1.70;99.90;;;;;;5039660;27;20039;-85
2023/01/20 02:23:37;;;;;;;0.80;0.80;;;1.70;99.90;;;;;;5048081;27;20193;-85
2023/01/20 02:26:14;;;;;;;0.80;0.80;;;1.50;99.90;;;;;;5026926;27;20047;-85
2023/01/20 02:29:08;;;;;;;0.80;0.80;;;1.50;99.90;;;;;;5031128;27;20043;-85
2023/01/20 02:32:12;;;;;;;0.70;0.70;;;1.70;99.90;;;;;;5043238;27;20059;-86
2023/01/20 02:34:57;;;;;;;0.80;0.80;;;1.60;99.90;;;;;;5028509;27;20888;-85
2023/01/20 02:37:28;;;;;;;0.80;0.80;;;1.60;99.90;;;;;;5047926;27;20040;-85
2023/01/20 02:40:00;;;;;;;0.80;0.80;;;1.50;99.90;;;;;;5042346;27;20043;-86
2023/01/20 02:42:58;;;;;;;0.73;0.73;;;1.50;99.90;;;;;;5048285;27;20047;-85
2023/01/20 02:45:46;;;;;;;0.70;0.70;;;1.60;99.90;;;;;;5059888;27;20043;-85
2023/01/20 02:48:34;;;;;;;0.80;0.80;;;1.50;99.90;;;;;;5030006;27;20042;-86
2023/01/20 02:51:04;;;;;;;0.70;0.70;;;1.70;99.90;;;;;;5045384;27;20039;-86
2023/01/20 02:53:41;;;;;;;0.80;0.80;;;1.60;99.90;;;;;;5050283;27;20046;-86
2023/01/20 02:56:08;;;;;;;0.80;0.80;;;1.60;99.90;;;;;;5035485;27;20055;-86
2023/01/20 02:58:41;;;;;;;0.80;0.80;;;1.60;99.90;;;;;;5021212;27;20042;-86
2023/01/20 03:01:15;;;;;;;0.80;0.80;;;1.50;99.90;;;;;;5053084;27;20059;-86
2023/01/20 03:03:44;;;;;;;0.90;0.90;;;1.70;99.90;;;;;;5044073;27;20039;-85
2023/01/20 03:06:17;;;;;;;0.80;0.80;;;1.50;99.90;;;;;;5046149;27;20043;-86
2023/01/20 03:08:47;;;;;;;0.80;0.80;;;1.80;99.90;;;;;;5045657;27;20043;-86
2023/01/20 03:11:12;;;;;;;0.80;0.80;;;1.70;99.90;;;;;;5047238;27;20058;-87
2023/01/20 03:13:58;;;;;;;0.80;0.80;;;1.60;99.90;;;;;;5022554;27;20256;-86
2023/01/20 03:16:26;;;;;;;0.80;0.80;;;1.50;99.90;;;;;;5036043;27;20849;-85
2023/01/20 03:18:54;;;;;;;0.80;0.80;;;1.60;99.90;;;;;;5051831;27;20073;-86
2023/01/20 03:21:20;;;;;;;0.80;0.80;;;1.60;99.90;;;;;;5049090;27;20057;-85
2023/01/20 03:23:50;;;;;;;0.80;0.80;;;1.40;99.90;;;;;;5039568;27;20043;-84
2023/01/20 03:26:18;;;;;;;0.80;0.80;;;1.50;99.90;;;;;;5028782;27;20035;-85
2023/01/20 03:28:47;;;;;;;0.80;0.80;;;1.40;99.90;;;;;;5052334;27;20091;-86
2023/01/20 03:31:26;;;;;;;0.80;0.80;;;1.60;99.90;;;;;;5045337;27;20049;-85
2023/01/20 03:33:56;;;;;;;0.82;0.82;;;1.30;99.90;;;;;;5050107;27;20051;-86
2023/01/20 03:36:24;;;;;;;0.80;0.80;;;1.40;99.90;;;;;;5056977;27;20046;-85
2023/01/20 03:38:52;;;;;;;0.80;0.80;;;1.40;99.90;;;;;;5050806;27;20051;-85
2023/01/20 03:41:41;;;;;;;0.80;0.80;;;1.40;99.90;;;;;;5044348;27;20169;-86
2023/01/20 03:44:32;;;;;;;0.80;0.80;;;1.40;99.90;;;;;;5047409;27;20432;-86
2023/01/20 03:47:21;;;;;;;0.80;0.80;;;1.50;99.90;;;;;;5053313;27;20495;-85
2023/01/20 03:50:16;;;;;;;0.80;0.80;;;1.50;99.90;;;;;;5037151;27;20452;-85
2023/01/20 03:52:48;;;;;;;0.80;0.80;;;1.50;99.90;;;;;;5047412;27;20054;-86
2023/01/20 03:55:28;;;;;;;0.80;0.80;;;1.40;99.90;;;;;;5046052;27;20043;-85
2023/01/20 03:58:05;;;;;;;0.80;0.80;;;1.40;99.90;;;;;;5029015;27;20567;-86
2023/01/20 04:00:35;;;;;;;0.80;0.80;;;1.50;99.90;;;;;;5031678;27;20081;-86
2023/01/20 04:03:05;;;;;;;0.85;0.85;;;1.60;99.90;;;;;;5026409;27;20816;-85
2023/01/20 04:05:32;;;;;;;0.80;0.80;;;1.50;99.90;;;;;;5050082;27;20785;-86
2023/01/20 04:08:04;;;;;;;0.80;0.80;;;1.50;99.90;;;;;;5043156;27;20511;-86
2023/01/20 04:10:33;;;;;;;0.80;0.80;;;1.70;99.90;;;;;;5052701;27;20049;-85
2023/01/20 04:12:59;;;;;;;0.80;0.80;;;1.50;99.90;;;;;;5033050;27;20779;-86
2023/01/20 04:15:26;;;;;;;0.80;0.80;;;1.60;99.90;;;;;;5034872;27;20130;-86
2023/01/20 04:17:52;;;;;;;0.80;0.80;;;1.60;99.90;;;;;;5049945;27;20076;-85
2023/01/20 04:20:18;;;;;;;0.80;0.80;;;1.50;99.90;;;;;;5047129;27;20039;-86
2023/01/20 04:22:56;;;;;;;0.90;0.90;;;1.50;99.90;;;;;;5041122;27;20105;-86
2023/01/20 04:25:30;;;;;;;0.80;0.80;;;1.60;99.90;;;;;;5026567;27;20050;-86
2023/01/20 04:27:56;;;;;;;0.80;0.80;;;1.60;99.90;;;;;;5032383;27;20046;-85
2023/01/20 04:30:22;;;;;;;0.80;0.80;;;1.50;99.90;;;;;;5028787;27;20039;-86
2023/01/20 04:32:47;;;;;;;0.80;0.80;;;1.40;99.90;;;;;;5029988;27;20318;-85
2023/01/20 04:35:16;;;;;;;0.88;0.88;;;1.60;99.90;;;;;;5021129;27;20089;-86
2023/01/20 04:37:42;;;;;;;0.80;0.80;;;1.50;99.90;;;;;;5024904;27;20496;-86
2023/01/20 04:40:09;;;;;;;0.80;0.80;;;1.40;99.90;;;;;;5022043;28;20108;-85
2023/01/20 04:42:36;;;;;;;0.80;0.80;;;1.60;99.90;;;;;;4999508;27;20039;-86
2023/01/20 04:45:02;;;;;;;0.80;0.80;;;1.50;99.90;;;;;;5005608;28;20131;-85
2023/01/20 04:47:32;;;;;;;0.80;0.80;;;1.60;99.90;;;;;;4995447;28;20834;-85
2023/01/20 04:49:58;;;;;;;0.70;0.70;;;1.60;99.90;;;;;;5000845;27;20577;-85
2023/01/20 04:52:24;;;;;;;0.85;0.85;;;1.50;99.90;;;;;;5018776;27;20039;-85
2023/01/20 04:54:50;;;;;;;0.80;0.80;;;1.40;99.90;;;;;;5015757;28;20070;-85
2023/01/20 04:57:15;;;;;;;0.80;0.80;;;1.60;99.90;;;;;;5021986;27;20387;-86
2023/01/20 04:59:41;;;;;;;0.80;0.80;;;1.70;99.90;;;;;;5016546;28;20180;-86
2023/01/20 05:02:07;;;;;;;0.80;0.80;;;1.40;99.90;;;;;;5017964;28;20043;-86
2023/01/20 05:04:36;;;;;;;0.80;0.80;;;1.60;99.90;;;;;;4995453;27;20039;-85
2023/01/20 05:07:02;;;;;;;0.88;0.88;;;1.60;99.90;;;;;;5007321;27;20896;-86
2023/01/20 05:09:28;;;;;;;0.80;0.80;;;1.50;99.90;;;;;;5021433;28;20047;-85
2023/01/20 05:11:54;;;;;;;0.80;0.80;;;1.50;99.90;;;;;;4998401;28;20387;-85
2023/01/20 05:14:19;;;;;;;0.88;0.88;;;1.40;99.90;;;;;;5021505;28;20090;-85
2023/01/20 05:16:46;;;;;;;0.80;0.80;;;1.40;99.90;;;;;;5027055;28;20051;-85
2023/01/20 05:19:11;;;;;;;0.80;0.80;;;1.40;99.90;;;;;;5003747;28;20134;-86
2023/01/20 05:21:37;;;;;;;0.80;0.80;;;1.40;99.90;;;;;;5009650;28;20437;-85
2023/01/20 05:24:04;;;;;;;0.80;0.80;;;1.60;99.90;;;;;;5025383;28;20358;-86
2023/01/20 05:26:31;;;;;;;0.80;0.80;;;1.60;99.90;;;;;;5031104;28;20499;-86
2023/01/20 05:28:57;;;;;;;0.80;0.80;;;1.50;99.90;;;;;;5026896;28;20434;-85
2023/01/20 05:31:23;;;;;;;0.80;0.80;;;1.50;99.90;;;;;;4978167;28;20043;-85
2023/01/20 05:33:48;;;;;;;0.75;0.75;;;1.50;99.90;;;;;;5030864;28;20070;-86
2023/01/20 05:36:14;;;;;;;0.80;0.80;;;1.60;99.90;;;;;;5003825;28;20051;-86
2023/01/20 05:38:40;;;;;;;0.80;0.80;;;1.60;99.90;;;;;;5022945;28;20057;-86
2023/01/20 05:41:07;;;;;;;0.80;0.80;;;1.60;99.90;;;;;;5046847;28;20062;-86
2023/01/20 05:43:33;;;;;;;0.80;0.80;;;1.70;99.90;;;;;;5047492;28;20044;-86
2023/01/20 05:45:59;;;;;;;0.80;0.80;;;1.50;99.90;;;;;;5043706;28;20625;-85
2023/01/20 05:48:27;;;;;;;0.80;0.80;;;1.70;99.90;;;;;;5028620;28;20212;-86
2023/01/20 05:50:53;;;;;;;0.80;0.80;;;1.40;99.90;;;;;;5027578;28;20509;-86
2023/01/20 05:53:20;;;;;;;0.80;0.80;;;1.50;99.90;;;;;;5038518;28;20047;-86
2023/01/20 05:55:46;;;;;;;0.90;0.90;;;1.50;99.90;;;;;;5050826;28;20048;-86
2023/01/20 05:58:13;;;;;;;0.80;0.80;;;1.50;99.90;;;;;;5020582;28;20534;-86
2023/01/20 06:00:39;;;;;;;0.80;0.80;;;1.50;99.90;;;;;;5009342;28;20055;-86
2023/01/20 06:03:04;;;;;;;0.80;0.80;;;1.50;99.90;;;;;;5034213;28;20055;-85
2023/01/20 06:05:30;;;;;;;0.80;0.80;;;1.50;99.90;;;;;;5035447;27;20050;-86
2023/01/20 06:07:56;;;;;;;0.80;0.80;;;1.50;99.90;;;;;;5025786;27;20039;-86
2023/01/20 06:10:29;;;;;;;0.80;0.80;;;1.60;99.90;;;;;;5021523;27;20484;-87
2023/01/20 06:12:55;;;;;;;0.80;0.80;;;1.60;99.90;;;;;;5030018;27;20099;-87
2023/01/20 06:15:25;;;;;;;0.80;0.80;;;1.50;99.90;;;;;;5043247;27;20043;-85
2023/01/20 06:17:53;;;;;;;0.80;0.80;;;1.70;99.90;;;;;;5039196;27;20201;-87
2023/01/20 06:20:19;;;;;;;0.80;0.80;;;1.60;99.90;;;;;;5024376;27;20085;-86
2023/01/20 06:22:48;;;;;;;0.80;0.80;;;1.60;99.90;;;;;;5023210;27;20043;-85
2023/01/20 06:25:14;;;;;;;0.80;0.80;;;1.70;99.90;;;;;;5021075;27;20084;-87
2023/01/20 06:27:40;;;;;;;0.80;0.80;;;1.60;99.90;;;;;;5005107;27;20056;-87
2023/01/20 06:30:06;;;;;;;0.80;0.80;;;1.60;99.90;;;;;;5031120;27;20092;-86
2023/01/20 06:32:32;;;;;;;0.80;0.80;;;1.70;99.90;;;;;;5029774;27;20039;-86
2023/01/20 06:34:58;;;;;;;0.80;0.80;;;1.70;99.90;;;;;;5033635;27;20066;-86
2023/01/20 06:37:23;;;;;;;0.80;0.80;;;1.70;99.90;;;;;;5048531;27;21050;-86
2023/01/20 06:39:49;;;;;;;0.80;0.80;;;1.70;99.90;;;;;;5036672;27;20079;-86
2023/01/20 06:42:15;;;;;;;0.80;0.80;;;1.60;99.90;;;;;;5006959;27;20038;-86
2023/01/20 06:44:41;;;;;;;0.80;0.80;;;1.70;99.90;;;;;;5034587;27;20451;-86
2023/01/20 06:47:06;;;;;;;0.80;0.80;;;1.60;99.90;;;;;;5031672;27;20065;-87
2023/01/20 06:49:32;;;;;;;0.80;0.80;;;1.60;99.90;;;;;;5030592;27;20280;-87
2023/01/20 06:51:59;;;;;;;0.80;0.80;;;1.80;99.90;;;;;;5018969;27;20461;-86
2023/01/20 06:54:26;;;;;;;0.80;0.80;;;1.70;99.90;;;;;;5049833;27;20864;-86
2023/01/20 06:56:52;;;;;;;0.80;0.80;;;1.80;99.90;;;;;;5027371;27;20123;-86
2023/01/20 06:59:17;;;;;;;0.80;0.80;;;1.90;99.90;;;;;;5025250;27;20427;-85
2023/01/20 07:01:43;;;;;;;0.82;0.82;;;1.80;99.90;;;;;;5016539;27;20488;-85
2023/01/20 07:04:12;;;;;;;0.90;0.90;;;1.70;99.90;;;;;;5034041;27;20035;-86
2023/01/20 07:06:39;;;;;;;0.80;0.80;;;1.70;99.90;;;;;;5050177;27;20520;-86
2023/01/20 07:09:08;;;;;;;0.80;0.80;;;1.80;99.90;;;;;;5034531;27;20099;-86
2023/01/20 07:11:34;;;;;;;0.80;0.80;;;1.90;99.90;;;;;;5036808;27;20198;-86
2023/01/20 07:14:01;;;;;;;0.80;0.80;;;1.90;99.90;;;;;;5053364;27;20452;-86
2023/01/20 07:16:27;;;;;;;0.80;0.80;;;1.80;99.90;;;;;;5052623;27;20035;-86
2023/01/20 07:18:53;;;;;;;0.80;0.80;;;1.80;99.90;;;;;;5031141;27;20038;-86
2023/01/20 07:21:20;;;;;;;0.80;0.80;;;1.80;99.90;;;;;;5026419;27;20051;-86
2023/01/20 07:23:46;;;;;;;0.80;0.80;;;1.80;99.90;;;;;;5032494;27;20051;-87
2023/01/20 07:26:17;;;;;;;0.80;0.80;;;1.70;99.90;;;;;;5050310;27;20053;-86
2023/01/20 07:28:44;;;;;;;0.90;0.90;;;1.80;99.90;;;;;;5050522;27;20691;-87
2023/01/20 07:31:18;;;;;;;0.80;0.80;;;1.90;99.90;;;;;;5032683;27;20046;-86
2023/01/20 07:33:44;;;;;;;0.80;0.80;;;1.70;99.90;;;;;;5032629;27;20054;-86
2023/01/20 07:36:11;;;;;;;0.80;0.80;;;1.70;99.90;;;;;;5035031;27;21709;-86
2023/01/20 07:38:37;;;;;;;0.80;0.80;;;1.80;99.90;;;;;;5030483;27;20266;-86
2023/01/20 07:41:06;;;;;;;0.80;0.80;;;1.80;99.90;;;;;;5050373;27;20046;-85
2023/01/20 07:43:32;;;;;;;0.90;0.90;;;1.80;99.90;;;;;;5050314;27;20076;-86
2023/01/20 07:46:00;;;;;;;0.80;0.80;;;1.70;99.90;;;;;;5066550;27;20055;-86
2023/01/20 07:48:28;;;;;;;0.80;0.80;;;1.70;99.90;;;;;;5030237;27;20562;-87
2023/01/20 07:51:04;;;;;;;0.80;0.80;;;1.70;99.90;;;;;;5053205;27;20066;-86
2023/01/20 07:53:47;;;;;;;0.80;0.80;;;1.70;99.90;;;;;;5055243;27;23061;-85
2023/01/20 07:56:22;;;;;;;0.90;0.90;;;1.70;99.90;;;;;;5048495;27;20050;-86
2023/01/20 07:58:49;;;;;;;0.80;0.80;;;1.70;99.90;;;;;;5052243;27;20137;-87
2023/01/20 08:01:17;;;;;;;0.80;0.80;;;1.70;99.90;;;;;;5039496;27;20058;-87
2023/01/20 08:03:44;;;;;;;0.80;0.80;;;1.70;99.90;;;;;;5050325;27;20145;-86
2023/01/20 08:06:12;;;;;;;0.80;0.80;;;1.80;99.90;;;;;;5047668;27;20131;-87
2023/01/20 08:08:38;;;;;;;0.80;0.80;;;1.60;99.90;;;;;;5047818;27;20043;-86
2023/01/20 08:11:05;;;;;;;0.80;0.80;;;1.70;99.90;;;;;;5029834;27;20046;-87
2023/01/20 08:13:32;;;;;;;0.80;0.80;;;1.80;99.90;;;;;;5029059;27;20042;-86
2023/01/20 08:16:05;;;;;;;0.90;0.90;;;1.80;99.90;;;;;;5033345;27;20049;-86
2023/01/20 08:18:32;;;;;;;0.80;0.80;;;1.70;99.90;;;;;;5053664;27;20053;-87
2023/01/20 08:20:58;;;;;;;0.80;0.80;;;1.70;99.90;;;;;;5031849;27;20439;-86
2023/01/20 08:23:24;;;;;;;0.88;0.88;;;1.80;99.90;;;;;;5041634;27;20492;-87
2023/01/20 08:26:00;;;;;;;0.80;0.80;;;1.80;99.90;;;;;;5032061;27;20057;-87
2023/01/20 08:28:27;;;;;;;0.80;0.80;;;1.80;99.90;;;;;;5047005;27;20043;-86
2023/01/20 08:30:54;;;;;;;0.80;0.80;;;1.80;99.90;;;;;;5048926;27;21104;-86
2023/01/20 08:33:19;;;;;;;0.80;0.80;;;1.80;99.90;;;;;;5044252;27;20365;-86
2023/01/20 08:35:46;;;;;;;0.80;0.80;;;1.70;99.90;;;;;;5040642;27;20116;-86
2023/01/20 08:38:12;;;;;;;0.80;0.80;;;1.80;99.90;;;;;;5045392;27;20059;-87
2023/01/20 08:40:41;;;;;;;0.80;0.80;;;1.70;99.90;;;;;;5050360;27;20542;-87
2023/01/20 08:43:07;;;;;;;0.80;0.80;;;1.70;99.90;;;;;;5028808;27;20061;-86
2023/01/20 08:45:33;;;;;;;0.80;0.80;;;1.70;99.90;;;;;;5018924;27;20136;-87
2023/01/20 08:47:58;;;;;;;0.80;0.80;;;1.70;99.90;;;;;;5041744;27;20458;-87
2023/01/20 08:50:24;;;;;;;0.80;0.80;;;1.70;99.90;;;;;;5027908;27;20203;-87
2023/01/20 08:52:50;;;;;;;0.80;0.80;;;1.80;99.90;;;;;;5029141;27;20482;-87
2023/01/20 08:55:16;;;;;;;0.80;0.80;;;1.80;99.90;;;;;;5016156;27;20081;-87
2023/01/20 08:57:41;;;;;;;0.80;0.80;;;1.90;99.90;;;;;;5046679;27;20138;-87
2023/01/20 09:00:09;;;;;;;0.82;0.82;;;1.80;99.90;;;;;;5025063;27;20042;-86
2023/01/20 09:02:36;;;;;;;0.80;0.80;;;1.90;99.90;;;;;;5049560;27;20104;-87
2023/01/20 09:05:04;;;;;;;0.80;0.80;;;1.90;99.90;;;;;;5023587;28;20717;-88
2023/01/20 09:07:30;;;;;;;0.80;0.80;;;1.90;99.90;;;;;;5032121;27;20066;-87
2023/01/20 09:09:55;;;;;;;3.42;3.22;;;2.00;99.90;;;;;;5042994;27;20039;-86
2023/01/20 09:12:21;;;;;;;0.80;0.80;;;2.00;99.90;;;;;;5042719;27;20126;-88
2023/01/20 09:14:47;;;;;;;0.80;0.80;;;1.90;99.90;;;;;;5047506;27;20046;-86
2023/01/20 09:17:13;;;;;;;0.80;0.80;;;1.90;99.90;;;;;;5031489;28;20407;-87
2023/01/20 09:19:41;;;;;;;0.80;0.80;;;1.90;99.90;;;;;;5025341;28;20039;-88
2023/01/20 09:22:07;;;;;;;0.80;0.80;;;1.90;99.90;;;;;;5033341;28;20051;-86
2023/01/20 09:24:33;;;;;;;0.80;0.80;;;2.00;99.90;;;;;;5005918;28;20463;-87
2023/01/20 09:26:59;;;;;;;0.80;0.80;;;1.90;99.90;;;;;;5052314;28;20368;-87
2023/01/20 09:29:24;;;;;;;0.80;0.80;;;2.00;99.90;;;;;;5028360;28;20122;-88
2023/01/20 09:31:57;;;;;;;0.80;0.80;;;1.90;99.90;;;;;;5017927;28;20397;-86
2023/01/20 09:34:25;;;;;;;0.80;0.80;;;2.00;99.90;;;;;;5047679;28;20039;-87
2023/01/20 09:36:53;;;;;;;0.80;0.80;;;2.10;99.90;;;;;;5043896;28;20048;-87
2023/01/20 09:45:23;;;;;;;0.80;0.80;;;2.10;99.90;;;;;;5053314;27;20083;-86
2023/01/20 09:47:52;;;;;;;0.80;0.80;;;2.10;99.90;;;;;;5053012;27;20335;-87
2023/01/20 09:53:26;;;;;;;0.80;0.80;;;2.20;99.90;;;;;;5057343;27;20047;-88
2023/01/20 09:55:54;;;;;;;0.80;0.80;;;2.10;99.90;;;;;;5041587;27;20049;-87
2023/01/20 09:58:45;;;;;;;0.80;0.80;;;2.10;99.90;;;;;;5033770;27;20054;-87
2023/01/20 10:01:35;;;;;;;0.80;0.80;;;2.20;99.90;;;;;;5047741;27;20043;-87
2023/01/20 10:04:11;;;;;;;0.80;0.80;;;2.10;99.90;;;;;;5056827;27;20075;-87
2023/01/20 10:06:43;;;;;;;0.80;0.80;;;2.20;99.90;;;;;;5033092;27;20050;-88
2023/01/20 10:09:20;;;;;;;0.80;0.80;;;2.30;99.90;;;;;;5046914;27;20550;-87
2023/01/20 10:11:48;;;;;;;0.80;0.80;;;2.20;99.90;;;;;;5030838;27;20538;-87
2023/01/20 10:14:28;;;;;;;0.80;0.80;;;2.30;99.90;;;;;;5041667;27;20040;-87
2023/01/20 10:17:08;;;;;;;0.80;0.80;;;2.30;99.90;;;;;;5036490;27;20043;-88
2023/01/20 10:19:42;;;;;;;0.80;0.80;;;2.40;99.90;;;;;;5053443;27;20970;-87
2023/01/20 10:22:26;;;;;;;0.80;0.80;;;2.40;99.90;;;;;;5036958;27;20282;-87
2023/01/20 10:25:05;;;;;;;0.80;0.80;;;2.40;99.90;;;;;;5048315;27;20048;-87
2023/01/20 10:27:33;;;;;;;0.80;0.80;;;2.40;99.90;;;;;;5035689;27;20134;-87
2023/01/20 10:30:09;;;;;;;0.80;0.80;;;2.40;99.90;;;;;;5035459;27;20039;-88
2023/01/20 10:32:51;;;;;;;0.80;0.80;;;2.50;99.90;;;;;;5034579;27;20496;-88
2023/01/20 10:35:21;;;;;;;0.80;0.80;;;2.40;99.90;;;;;;5049570;27;20877;-86
2023/01/20 10:37:47;;;;;;;0.80;0.80;;;2.40;99.90;;;;;;5036771;27;20043;-87
2023/01/20 10:40:18;;;;;;;0.80;0.80;;;2.40;99.90;;;;;;5038051;27;20387;-88
2023/01/20 10:42:51;;;;;;;0.80;0.80;;;2.30;99.90;;;;;;5039893;27;20061;-88
2023/01/20 10:45:33;;;;;;;0.80;0.80;;;2.30;99.90;;;;;;5055024;27;20114;-87
2023/01/20 10:48:21;;;;;;;0.75;0.75;;;2.30;99.90;;;;;;5049365;27;20558;-87
2023/01/20 10:51:17;;;;;;;0.80;0.80;;;2.30;99.90;;;;;;5039588;27;20512;-87
2023/01/20 10:54:13;;;;;;;0.80;0.80;;;2.30;99.90;;;;;;5001574;27;20094;-85
2023/01/20 10:56:52;;;;;;;0.80;0.80;;;2.40;99.90;;;;;;4990719;27;20059;-86
2023/01/20 10:59:47;;;;;;;0.80;0.80;;;2.50;99.90;;;;;;5053929;27;20527;-88
2023/01/20 11:02:21;;;;;;;0.80;0.80;;;2.50;99.90;;;;;;5038145;27;20043;-89
2023/01/20 11:05:02;;;;;;;0.80;0.80;;;2.50;99.90;;;;;;5039988;27;20488;-89
2023/01/20 11:07:31;;;;;;;0.80;0.80;;;2.70;99.90;;;;;;5031685;27;20053;-91
2023/01/20 11:10:12;;;;;;;0.80;0.80;;;2.70;99.90;;;;;;5062166;27;20723;-88
2023/01/20 11:12:41;;;;;;;0.77;0.77;;;2.70;99.90;;;;;;5037397;27;21436;-87
2023/01/20 11:15:18;;;;;;;0.80;0.80;;;2.60;99.90;;;;;;5053455;27;20102;-88
2023/01/20 11:17:44;;;;;;;0.70;0.70;;;2.70;99.90;;;;;;5035184;27;20584;-89
2023/01/20 11:20:20;;;;;;;0.73;0.73;;;2.70;99.90;;;;;;5042557;27;20038;-89
2023/01/20 11:22:49;;;;;;;0.80;0.80;;;2.70;99.90;;;;;;5035949;27;20066;-89
2023/01/20 11:25:26;;;;;;;0.80;0.80;;;2.80;99.90;;;;;;5024163;27;20039;-87
2023/01/20 11:27:52;;;;;;;0.70;0.70;;;2.70;99.90;;;;;;5041312;27;20038;-87
2023/01/20 11:30:29;;;;;;;0.80;0.80;;;2.70;99.90;;;;;;5057931;27;20457;-88
2023/01/20 11:33:25;;;;;;;0.80;0.80;;;2.70;99.90;;;;;;5047167;27;20322;-89
2023/01/20 11:36:02;;;;;;;0.80;0.80;;;2.70;99.90;;;;;;5036173;27;20389;-89
2023/01/20 11:38:44;;;;;;;0.80;0.80;;;2.70;99.90;;;;;;5031849;27;20810;-88
2023/01/20 11:41:30;;;;;;;0.70;0.70;;;2.80;99.90;;;;;;5051754;27;20416;-88
2023/01/20 11:43:58;;;;;;;0.80;0.80;;;2.80;99.90;;;;;;5044027;27;20147;-88
2023/01/20 11:46:30;;;;;;;0.70;0.70;;;2.70;99.90;;;;;;5054433;27;20047;-87
2023/01/20 11:49:25;;;;;;;0.80;0.80;;;2.70;99.90;;;;;;5052501;27;20575;-87
2023/01/20 11:51:53;;;;;;;0.80;0.80;;;2.70;99.90;;;;;;5041513;27;20055;-90
2023/01/20 11:54:29;;;;;;;0.80;0.80;;;2.80;99.90;;;;;;5053681;27;20058;-89
2023/01/20 11:57:00;;;;;;;0.90;0.90;;;2.80;99.90;;;;;;5027265;27;20050;-91
2023/01/20 11:59:31;;;;;;;0.80;0.80;;;2.90;99.90;;;;;;5040749;27;20079;-88
2023/01/20 12:02:08;;;;;;;0.90;0.90;;;2.90;99.90;;;;;;5034192;27;20036;-88
2023/01/20 12:04:51;;;;;;;0.80;0.80;;;2.90;99.90;;;;;;5056100;27;20615;-88
2023/01/20 12:07:41;;;;;;;0.80;0.80;;;2.90;99.90;;;;;;5051055;27;20947;-89
2023/01/20 12:10:18;;;;;;;0.80;0.80;;;2.90;99.90;;;;;;5033425;27;20162;-87
2023/01/20 12:12:52;;;;;;;0.80;0.80;;;2.80;99.90;;;;;;5051229;27;20048;-88
2023/01/20 12:15:25;;;;;;;0.80;0.80;;;2.70;99.90;;;;;;5036285;27;20043;-87
2023/01/20 12:18:03;;;;;;;0.70;0.70;;;2.70;99.90;;;;;;5053980;27;20112;-87
2023/01/20 12:20:35;;;;;;;0.80;0.80;;;2.70;99.90;;;;;;5050899;27;20145;-89
2023/01/20 12:23:26;;;;;;;0.80;0.80;;;2.80;99.90;;;;;;5058145;27;20054;-89
2023/01/20 12:26:02;;;;;;;0.80;0.80;;;2.70;99.90;;;;;;5055607;27;20039;-88
2023/01/20 12:28:51;;;;;;;0.70;0.70;;;2.70;99.90;;;;;;5034743;27;20043;-88
2023/01/20 12:31:19;;;;;;;0.77;0.77;;;2.80;99.90;;;;;;5029859;27;20047;-88
2023/01/20 12:33:49;;;;;;;0.80;0.80;;;2.80;99.90;;;;;;5049340;27;20043;-87
2023/01/20 12:36:30;;;;;;;0.80;0.80;;;2.80;99.90;;;;;;5035477;27;20248;-87
2023/01/20 12:39:18;;;;;;;0.80;0.80;;;2.80;99.90;;;;;;5060510;27;20044;-88
2023/01/20 12:42:05;;;;;;;0.80;0.80;;;2.80;99.90;;;;;;5047656;27;20053;-89
2023/01/20 12:45:08;;;;;;;0.70;0.70;;;2.80;99.90;;;;;;5030300;27;20054;-87
2023/01/20 12:47:40;;;;;;;0.80;0.80;;;2.80;99.90;;;;;;5042014;27;20261;-87
2023/01/20 12:50:27;;;;;;;0.80;0.80;;;2.80;99.90;;;;;;5034711;28;20043;-88
2023/01/20 12:52:57;;;;;;;0.80;0.80;;;2.80;99.90;;;;;;5046820;27;20048;-88
2023/01/20 12:55:58;;;;;;;0.75;0.75;;;2.80;99.90;;;;;;5030194;27;20039;-87
2023/01/20 12:59:00;;;;;;;0.80;0.80;;;2.80;99.90;;;;;;5042836;27;20050;-87
2023/01/20 13:01:41;;;;;;;0.80;0.80;;;2.70;99.90;;;;;;5042859;27;20167;-88
2023/01/20 13:04:28;;;;;;;0.80;0.80;;;2.80;99.90;;;;;;5047432;27;20809;-88
2023/01/20 13:06:57;;;;;;;0.77;0.77;;;2.80;99.90;;;;;;5027899;28;20045;-88
2023/01/20 13:09:49;;;;;;;0.70;0.70;;;2.70;99.90;;;;;;5050330;27;20245;-87
2023/01/20 13:12:40;;;;;;;0.70;0.70;;;2.80;99.90;;;;;;5046771;27;20043;-89
2023/01/20 13:15:14;;;;;;;0.77;0.77;;;2.80;99.90;;;;;;5039829;27;20043;-88
2023/01/20 13:17:55;;;;;;;0.70;0.70;;;2.80;99.90;;;;;;5031548;27;20063;-89
2023/01/20 13:20:26;;;;;;;0.77;0.77;;;2.90;99.90;;;;;;5035421;28;20523;-91
2023/01/20 13:22:54;;;;;;;0.80;0.80;;;2.70;99.90;;;;;;5029608;28;20040;-88
2023/01/20 13:25:21;;;;;;;0.70;0.70;;;2.60;99.90;;;;;;5026348;28;20059;-87
2023/01/20 13:27:47;;;;;;;0.80;0.80;;;2.70;99.90;;;;;;5051402;28;20438;-88